createdAt,value
2023-02-02T00:02:45.950Z,98438.94
2023-02-02T00:05:49.381Z,98442.41
2023-02-02T00:08:51.224Z,98425.78
2023-02-02T00:11:52.796Z,98430.19
2023-02-02T00:14:56.184Z,98435.50
2023-02-02T00:17:57.661Z,98432.91
2023-02-02T00:20:59.333Z,98443.53
2023-02-02T00:24:01.669Z,98441.81
2023-02-02T00:27:03.457Z,98429.50
2023-02-02T00:30:07.201Z,98435.72
2023-02-02T00:33:09.185Z,98439.31
2023-02-02T00:36:10.704Z,98440.22
2023-02-02T00:39:14.439Z,98440.25
2023-02-02T00:42:16.063Z,98435.00
2023-02-02T00:45:19.268Z,98450.81
2023-02-02T00:48:20.983Z,98445.59
2023-02-02T00:51:22.511Z,98441.22
2023-02-02T00:54:24.311Z,98443.00
2023-02-02T00:57:25.860Z,98440.41
2023-02-02T01:00:29.482Z,98446.53
2023-02-02T01:03:31.526Z,98445.59
2023-02-02T01:06:33.248Z,98459.69
2023-02-02T01:09:34.808Z,98455.38
2023-02-02T01:12:36.574Z,98463.25
2023-02-02T01:15:39.463Z,98473.78
2023-02-02T01:18:41.117Z,98475.56
2023-02-02T01:21:42.993Z,98456.22
2023-02-02T01:24:44.505Z,98477.38
2023-02-02T01:27:47.246Z,98470.34
2023-02-02T01:30:50.259Z,98480.06
2023-02-02T01:33:52.323Z,98480.97
2023-02-02T01:36:54.989Z,98472.22
2023-02-02T01:39:56.553Z,98488.91
2023-02-02T01:42:58.106Z,98490.66
2023-02-02T01:46:01.706Z,98497.63
2023-02-02T01:49:06.147Z,98495.84
2023-02-02T01:52:10.106Z,98497.63
2023-02-02T01:55:12.924Z,98495.00
2023-02-02T01:58:15.723Z,98494.13
2023-02-02T02:01:18.841Z,98496.81
2023-02-02T02:04:21.077Z,98492.47
2023-02-02T02:07:23.674Z,98496.00
2023-02-02T02:10:25.661Z,98489.91
2023-02-02T02:14:04.124Z,98501.41
2023-02-02T02:17:21.942Z,98497.03
2023-02-02T02:20:53.317Z,98501.47
2023-02-02T02:24:25.223Z,98508.50
2023-02-02T02:27:47.836Z,98500.59
2023-02-02T02:31:08.269Z,98515.41
2023-02-02T02:34:16.154Z,98514.53
2023-02-02T02:37:23.986Z,98518.91
2023-02-02T02:40:29.169Z,98517.16
2023-02-02T02:43:32.996Z,98519.72
2023-02-02T02:46:35.205Z,98524.13
2023-02-02T02:49:43.541Z,98526.75
2023-02-02T02:52:45.774Z,98531.06
2023-02-02T02:55:50.113Z,98530.06
2023-02-02T02:58:55.341Z,98533.59
2023-02-02T03:02:01.387Z,98540.63
2023-02-02T03:05:10.828Z,98538.84
2023-02-02T03:08:15.884Z,98540.59
2023-02-02T03:11:18.020Z,98534.50
2023-02-02T03:14:19.628Z,98528.31
2023-02-02T03:17:21.238Z,98534.44
2023-02-02T03:20:24.100Z,98537.94
2023-02-02T03:23:26.010Z,98537.03
2023-02-02T03:26:29.237Z,98528.22
2023-02-02T03:29:30.893Z,98539.63
2023-02-02T03:32:32.579Z,98541.34
2023-02-02T03:35:35.484Z,98534.31
2023-02-02T03:38:37.217Z,98538.72
2023-02-02T03:41:38.780Z,98538.75
2023-02-02T03:44:40.463Z,98540.56
2023-02-02T03:47:42.038Z,98541.38
2023-02-02T03:50:45.101Z,98558.94
2023-02-02T03:53:50.142Z,98549.25
2023-02-02T03:56:51.744Z,98547.50
2023-02-02T03:59:53.336Z,98557.19
2023-02-02T04:02:55.077Z,98552.72
2023-02-02T04:05:58.122Z,98554.50
2023-02-02T04:08:59.687Z,98560.63
2023-02-02T04:12:01.294Z,98558.91
2023-02-02T04:15:03.033Z,98567.69
2023-02-02T04:18:04.755Z,98565.03
2023-02-02T04:21:08.586Z,98572.88
2023-02-02T04:24:11.396Z,98564.97
2023-02-02T04:27:13.359Z,98567.59
2023-02-02T04:30:15.079Z,98574.59
2023-02-02T04:33:16.666Z,98573.72
2023-02-02T04:36:19.731Z,98573.72
2023-02-02T04:39:21.423Z,98578.94
2023-02-02T04:42:23.320Z,98586.81
2023-02-02T04:45:25.492Z,98579.75
2023-02-02T04:48:27.454Z,98591.19
2023-02-02T04:51:30.457Z,98587.66
2023-02-02T04:54:34.055Z,98586.81
2023-02-02T04:57:35.648Z,98578.91
2023-02-02T05:00:37.413Z,98580.63
2023-02-02T05:03:39.360Z,98590.28
2023-02-02T05:06:42.406Z,98577.97
2023-02-02T05:09:43.907Z,98575.34
2023-02-02T05:12:45.535Z,98583.28
2023-02-02T05:15:47.840Z,98582.38
2023-02-02T05:18:50.348Z,98589.44
2023-02-02T05:21:54.686Z,98595.56
2023-02-02T05:24:56.247Z,98592.06
2023-02-02T05:27:57.953Z,98591.16
2023-02-02T05:30:59.589Z,98596.47
2023-02-02T05:34:01.234Z,98592.09
2023-02-02T05:37:04.419Z,98599.97
2023-02-02T05:40:06.519Z,98589.31
2023-02-02T05:43:08.184Z,98604.19
2023-02-02T05:46:09.813Z,98605.94
2023-02-02T05:49:12.839Z,98609.47
2023-02-02T05:52:18.102Z,98596.25
2023-02-02T05:55:20.207Z,98605.94
2023-02-02T05:58:22.006Z,98614.72
2023-02-02T06:01:23.733Z,98605.91
2023-02-02T06:04:25.573Z,98606.81
2023-02-02T06:07:28.739Z,98605.94
2023-02-02T06:10:31.544Z,98610.34
2023-02-02T06:13:33.278Z,98615.66
2023-02-02T06:16:35.089Z,98620.97
2023-02-02T06:19:36.780Z,98623.72
2023-02-02T06:22:40.071Z,98621.97
2023-02-02T06:25:41.678Z,98638.72
2023-02-02T06:28:43.397Z,98636.16
2023-02-02T06:31:45.298Z,98631.78
2023-02-02T06:34:47.130Z,98640.59
2023-02-02T06:37:50.041Z,98646.81
2023-02-02T06:40:51.613Z,98653.03
2023-02-02T06:43:53.970Z,98653.13
2023-02-02T06:46:55.511Z,98658.47
2023-02-02T06:49:57.067Z,98657.63
2023-02-02T06:53:00.189Z,98664.72
2023-02-02T06:56:03.082Z,98667.44
2023-02-02T06:59:04.707Z,98665.75
2023-02-02T07:02:06.339Z,98658.81
2023-02-02T07:05:08.301Z,98671.16
2023-02-02T07:08:11.355Z,98673.88
2023-02-02T07:11:16.499Z,98678.28
2023-02-02T07:14:18.499Z,98680.19
2023-02-02T07:17:20.063Z,98680.19
2023-02-02T07:20:21.697Z,98682.88
2023-02-02T07:23:24.829Z,98683.75
2023-02-02T07:26:27.732Z,98684.75
2023-02-02T07:29:29.428Z,98694.34
2023-02-02T07:32:31.183Z,98692.63
2023-02-02T07:35:32.697Z,98692.69
2023-02-02T07:38:35.768Z,98694.47
2023-02-02T07:41:37.421Z,98696.25
2023-02-02T07:44:39.508Z,98692.72
2023-02-02T07:47:41.035Z,98706.78
2023-02-02T07:50:42.635Z,98708.53
2023-02-02T07:53:46.131Z,98709.41
2023-02-02T07:56:47.974Z,98723.44
2023-02-02T07:59:50.492Z,98725.25
2023-02-02T08:02:52.120Z,98720.88
2023-02-02T08:05:53.755Z,98723.50
2023-02-02T08:08:56.845Z,98727.03
2023-02-02T08:12:01.894Z,98726.16
2023-02-02T08:15:03.871Z,98732.31
2023-02-02T08:18:05.491Z,98743.66
2023-02-02T08:21:11.148Z,98745.41
2023-02-02T08:24:14.251Z,98742.81
2023-02-02T08:27:16.957Z,98746.34
2023-02-02T08:30:18.736Z,98749.00
2023-02-02T08:33:20.557Z,98751.72
2023-02-02T08:36:22.813Z,98756.13
2023-02-02T08:39:25.938Z,98749.09
2023-02-02T08:42:37.983Z,98757.03
2023-02-02T08:46:02.972Z,98756.97
2023-02-02T08:49:04.421Z,98767.53
2023-02-02T08:52:09.429Z,98762.25
2023-02-02T08:55:11.120Z,98764.88
2023-02-02T08:58:14.773Z,98773.69
2023-02-02T09:01:17.519Z,98779.00
2023-02-02T09:04:19.186Z,98785.16
2023-02-02T09:07:21.290Z,98778.13
2023-02-02T09:10:23.204Z,98785.19
2023-02-02T09:13:28.819Z,98779.91
2023-02-02T09:16:30.585Z,98786.06
2023-02-02T09:19:32.491Z,98792.22
2023-02-02T09:22:34.069Z,98785.13
2023-02-02T09:25:35.804Z,98794.78
2023-02-02T09:28:39.375Z,98795.59
2023-02-02T09:31:41.522Z,98806.13
2023-02-02T09:34:43.248Z,98805.25
2023-02-02T09:37:45.573Z,98810.44
2023-02-02T09:40:47.297Z,98812.19
2023-02-02T09:43:53.925Z,98811.28
2023-02-02T09:47:00.383Z,98817.41
2023-02-02T09:50:04.141Z,98828.84
2023-02-02T09:53:11.578Z,98834.97
2023-02-02T09:56:18.777Z,98831.41
2023-02-02T09:59:24.517Z,98838.50
2023-02-02T10:02:27.861Z,98846.41
2023-02-02T10:05:32.482Z,98846.41
2023-02-02T10:08:36.702Z,98849.91
2023-02-02T10:11:42.553Z,98861.28
2023-02-02T10:14:51.084Z,98857.78
2023-02-02T10:17:55.373Z,98859.50
2023-02-02T10:20:58.934Z,98864.72
2023-02-02T10:24:02.555Z,98863.75
2023-02-02T10:27:07.143Z,98863.75
2023-02-02T10:30:16.212Z,98860.22
2023-02-02T10:33:24.333Z,98869.03
2023-02-02T10:36:29.234Z,98868.09
2023-02-02T10:39:38.778Z,98876.00
2023-02-02T10:43:05.707Z,98878.56
2023-02-02T10:46:13.508Z,98877.72
2023-02-02T10:49:17.136Z,98866.25
2023-02-02T10:52:21.022Z,98875.84
2023-02-02T10:55:28.768Z,98886.38
2023-02-02T10:58:32.952Z,98884.59
2023-02-02T11:01:36.054Z,98892.50
2023-02-02T11:04:56.389Z,98882.84
2023-02-02T11:07:57.947Z,98881.91
2023-02-02T11:11:08.838Z,98891.56
2023-02-02T11:14:13.534Z,98886.31
2023-02-02T11:17:20.371Z,98895.94
2023-02-02T11:20:23.790Z,98905.59
2023-02-02T11:23:27.833Z,98904.69
2023-02-02T11:26:41.015Z,98902.06
2023-02-02T11:29:45.215Z,98907.28
2023-02-02T11:32:49.747Z,98900.22
2023-02-02T11:35:55.602Z,98896.69
2023-02-02T11:39:14.403Z,98901.13
2023-02-02T11:42:17.073Z,98904.63
2023-02-02T11:45:20.798Z,98904.59
2023-02-02T11:48:26.894Z,98909.78
2023-02-02T11:51:29.745Z,98912.47
2023-02-02T11:54:33.908Z,98912.53
2023-02-02T11:57:35.596Z,98908.94
2023-02-02T12:00:45.734Z,98907.16
2023-02-02T12:03:49.440Z,98912.47
2023-02-02T12:06:50.995Z,98914.22
2023-02-02T12:09:52.989Z,98914.16
2023-02-02T12:13:00.604Z,98926.44
2023-02-02T12:16:08.849Z,98918.53
2023-02-02T12:19:22.754Z,98927.31
2023-02-02T12:22:35.421Z,98928.19
2023-02-02T12:25:55.162Z,98920.19
2023-02-02T12:29:11.864Z,98921.94
2023-02-02T12:32:21.322Z,98927.13
2023-02-02T12:35:30.824Z,98927.28
2023-02-02T12:38:45.382Z,98933.38
2023-02-02T12:42:04.198Z,98933.34
2023-02-02T12:45:14.261Z,98935.06
2023-02-02T12:48:27.203Z,98931.53
2023-02-02T12:51:36.333Z,98933.25
2023-02-02T12:54:51.838Z,98929.72
2023-02-02T12:58:07.382Z,98919.94
2023-02-02T13:01:20.286Z,98927.84
2023-02-02T13:04:31.223Z,98927.78
2023-02-02T13:07:39.931Z,98928.63
2023-02-02T13:10:43.902Z,98928.63
2023-02-02T13:13:45.504Z,98931.25
2023-02-02T13:16:50.599Z,98927.72
2023-02-02T13:19:54.728Z,98930.31
2023-02-02T13:23:02.684Z,98936.50
2023-02-02T13:26:06.425Z,98937.38
2023-02-02T13:29:14.200Z,98941.88
2023-02-02T13:32:20.239Z,98939.28
2023-02-02T13:35:25.422Z,98945.44
2023-02-02T13:38:34.861Z,98940.16
2023-02-02T13:41:37.010Z,98944.53
2023-02-02T13:44:42.086Z,98941.88
2023-02-02T13:47:46.516Z,98940.91
2023-02-02T13:50:54.734Z,98947.09
2023-02-02T13:54:04.516Z,98950.56
2023-02-02T13:57:17.729Z,98951.47
2023-02-02T14:00:21.488Z,98961.25
2023-02-02T14:03:33.752Z,98963.88
2023-02-02T14:06:50.742Z,98960.41
2023-02-02T14:09:53.891Z,98964.84
2023-02-02T14:12:56.035Z,98969.28
2023-02-02T14:15:58.284Z,98967.56
2023-02-02T14:19:00.259Z,98968.47
2023-02-02T14:22:03.898Z,98980.00
2023-02-02T14:25:20.621Z,98981.88
2023-02-02T14:28:40.377Z,98983.66
2023-02-02T14:31:52.294Z,98983.69
2023-02-02T14:34:55.628Z,98993.44
2023-02-02T14:37:59.384Z,98999.53
2023-02-02T14:41:05.679Z,98999.63
2023-02-02T14:44:07.233Z,99001.41
2023-02-02T14:47:23.706Z,99006.72
2023-02-02T14:50:31.135Z,99014.63
2023-02-02T14:53:33.852Z,99024.38
2023-02-02T14:56:40.204Z,99029.66
2023-02-02T14:59:46.781Z,99034.06
2023-02-02T15:02:53.516Z,99028.88
2023-02-02T15:06:03.175Z,99030.63
2023-02-02T15:09:23.538Z,99035.91
2023-02-02T15:12:29.983Z,99035.91
2023-02-02T15:15:34.186Z,99041.16
2023-02-02T15:18:40.769Z,99036.81
2023-02-02T15:21:46.110Z,99033.31
2023-02-02T15:24:48.514Z,99038.63
2023-02-02T15:27:56.807Z,99036.03
2023-02-02T15:31:01.138Z,99048.31
2023-02-02T15:34:04.981Z,99047.47
2023-02-02T15:37:12.443Z,99059.81
2023-02-02T15:40:15.040Z,99059.84
2023-02-02T15:43:17.790Z,99062.47
2023-02-02T15:46:24.606Z,99074.78
2023-02-02T15:49:34.392Z,99082.72
2023-02-02T15:52:46.426Z,99080.16
2023-02-02T15:55:48.427Z,99080.16
2023-02-02T15:58:51.490Z,99074.94
2023-02-02T16:01:57.830Z,99087.28
2023-02-02T16:04:59.539Z,99089.03
2023-02-02T16:08:06.014Z,99096.09
2023-02-02T16:11:09.817Z,99096.13
2023-02-02T16:14:17.561Z,99097.00
2023-02-02T16:17:21.537Z,99104.00
2023-02-02T16:20:23.255Z,99114.53
2023-02-02T16:23:30.533Z,99120.66
2023-02-02T16:26:33.387Z,99116.31
2023-02-02T16:29:35.287Z,99113.66
2023-02-02T16:32:39.293Z,99110.19
2023-02-02T16:35:41.987Z,99110.13
2023-02-02T16:38:45.554Z,99105.69
2023-02-02T16:41:49.336Z,99104.81
2023-02-02T16:44:51.064Z,99106.56
2023-02-02T16:47:53.168Z,99113.56
2023-02-02T16:51:06.496Z,99120.59
2023-02-02T16:54:17.990Z,99108.31
2023-02-02T16:57:21.744Z,99117.97
2023-02-02T17:00:24.724Z,99111.84
2023-02-02T17:03:31.310Z,99114.47
2023-02-02T17:06:50.079Z,99102.16
2023-02-02T17:10:09.212Z,99103.94
2023-02-02T17:13:25.797Z,99099.56
2023-02-02T17:16:28.988Z,99102.22
2023-02-02T17:19:31.178Z,99108.41
2023-02-02T17:22:36.604Z,99107.53
2023-02-02T17:25:40.830Z,99119.84
2023-02-02T17:28:43.458Z,99118.09
2023-02-02T17:31:46.665Z,99119.88
2023-02-02T17:34:48.208Z,99112.91
2023-02-02T17:37:51.755Z,99116.44
2023-02-02T17:40:54.238Z,99122.56
2023-02-02T17:43:55.806Z,99119.94
2023-02-02T17:46:58.714Z,99109.41
2023-02-02T17:50:01.066Z,99105.88
2023-02-02T17:53:02.649Z,99117.28
2023-02-02T17:56:04.672Z,99119.94
2023-02-02T17:59:06.397Z,99115.50
2023-02-02T18:02:12.440Z,99118.13
2023-02-02T18:05:15.428Z,99107.59
2023-02-02T18:08:17.060Z,99104.94
2023-02-02T18:11:18.683Z,99116.34
2023-02-02T18:14:20.234Z,99117.22
2023-02-02T18:17:23.269Z,99114.59
2023-02-02T18:20:24.858Z,99119.84
2023-02-02T18:23:29.281Z,99108.41
2023-02-02T18:26:32.604Z,99107.53
2023-02-02T18:29:34.370Z,99104.00
2023-02-02T18:32:38.305Z,99094.34
2023-02-02T18:35:41.098Z,99091.72
2023-02-02T18:38:45.217Z,99089.91
2023-02-02T18:41:46.997Z,99079.38
2023-02-02T18:44:48.579Z,99083.78
2023-02-02T18:47:51.782Z,99079.38
2023-02-02T18:50:53.538Z,99079.38
2023-02-02T18:54:00.242Z,99080.25
2023-02-02T18:57:09.808Z,99079.41
2023-02-02T19:00:12.159Z,99074.09
2023-02-02T19:03:15.246Z,99077.56
2023-02-02T19:06:36.350Z,99079.38
2023-02-02T19:09:38.038Z,99080.22
2023-02-02T19:12:39.704Z,99070.56
2023-02-02T19:15:42.988Z,99070.53
2023-02-02T19:18:46.319Z,99068.81
2023-02-02T19:21:48.040Z,99066.19
2023-02-02T19:24:49.797Z,99067.94
2023-02-02T19:27:51.371Z,99062.63
2023-02-02T19:30:53.939Z,99061.69
2023-02-02T19:33:58.166Z,99059.97
2023-02-02T19:37:01.320Z,99059.06
2023-02-02T19:40:14.357Z,99055.59
2023-02-02T19:43:21.745Z,99059.06
2023-02-02T19:46:25.079Z,99050.28
2023-02-02T19:49:31.386Z,99050.28
2023-02-02T19:52:33.970Z,99048.50
2023-02-02T19:55:37.044Z,99052.84
2023-02-02T19:58:38.668Z,99058.03
2023-02-02T20:01:40.692Z,99050.94
2023-02-02T20:04:47.019Z,99047.34
2023-02-02T20:07:52.302Z,99052.50
2023-02-02T20:10:54.608Z,99037.50
2023-02-02T20:13:56.297Z,99034.84
2023-02-02T20:17:01.010Z,99029.53
2023-02-02T20:20:13.957Z,99033.00
2023-02-02T20:23:23.319Z,99032.06
2023-02-02T20:26:26.359Z,99031.09
2023-02-02T20:29:36.498Z,99027.53
2023-02-02T20:32:40.955Z,99023.09
2023-02-02T20:35:44.474Z,99019.47
2023-02-02T20:38:46.118Z,99023.81
2023-02-02T20:41:48.405Z,99024.66
2023-02-02T20:44:49.906Z,99019.31
2023-02-02T20:47:51.790Z,99020.97
2023-02-02T20:50:54.748Z,99023.44
2023-02-02T20:53:56.709Z,99024.09
2023-02-02T20:56:58.584Z,99016.97
2023-02-02T21:00:00.253Z,99021.31
2023-02-02T21:03:01.820Z,99013.97
2023-02-02T21:06:04.944Z,99020.00
2023-02-02T21:09:07.846Z,99012.00
2023-02-02T21:12:09.574Z,99004.78
2023-02-02T21:15:11.443Z,99008.19
2023-02-02T21:18:13.072Z,99006.25
2023-02-02T21:21:17.026Z,99008.81
2023-02-02T21:24:18.760Z,99005.28
2023-02-02T21:27:20.760Z,99002.53
2023-02-02T21:30:22.461Z,98990.91
2023-02-02T21:33:24.242Z,98998.81
2023-02-02T21:36:32.128Z,98993.44
2023-02-02T21:39:35.203Z,98991.47
2023-02-02T21:42:37.608Z,98989.63
2023-02-02T21:45:39.577Z,98994.75
2023-02-02T21:48:42.053Z,99002.56
2023-02-02T21:51:47.786Z,99008.69
2023-02-02T21:54:49.615Z,99004.25
2023-02-02T21:57:51.392Z,99013.88
2023-02-02T22:00:53.724Z,99013.72
2023-02-02T22:03:55.232Z,99006.59
2023-02-02T22:06:59.530Z,99007.41
2023-02-02T22:10:18.307Z,98997.66
2023-02-02T22:13:20.978Z,99005.59
2023-02-02T22:16:24.965Z,98998.34
2023-02-02T22:19:28.245Z,99009.81
2023-02-02T22:22:33.904Z,98999.19
2023-02-02T22:25:36.581Z,99003.59
2023-02-02T22:28:42.240Z,98995.56
2023-02-02T22:31:44.027Z,98996.41
2023-02-02T22:34:45.836Z,98996.34
2023-02-02T22:37:48.823Z,98991.03
2023-02-02T22:40:52.693Z,99001.66
2023-02-02T22:43:54.485Z,98993.69
2023-02-02T22:46:56.321Z,98986.56
2023-02-02T22:49:58.413Z,98975.91
2023-02-02T22:53:01.339Z,98982.94
2023-02-02T22:56:03.250Z,98969.69
2023-02-02T22:59:04.822Z,98970.53
2023-02-02T23:02:07.107Z,98961.66
2023-02-02T23:05:10.075Z,98959.84
2023-02-02T23:08:13.004Z,98949.25
2023-02-02T23:11:14.792Z,98949.28
2023-02-02T23:14:16.332Z,98958.09
2023-02-02T23:17:17.922Z,98959.84
2023-02-02T23:20:19.862Z,98961.56
2023-02-02T23:23:23.076Z,98974.81
2023-02-02T23:26:24.631Z,98986.22
2023-02-02T23:29:26.746Z,98973.88
2023-02-02T23:32:28.594Z,98972.13
2023-02-02T23:35:30.155Z,98972.06
2023-02-02T23:38:33.344Z,98964.97
2023-02-02T23:41:34.893Z,98952.59
2023-02-02T23:44:36.508Z,98926.94
2023-02-02T23:47:38.431Z,98904.84
2023-02-02T23:50:40.366Z,98911.91
2023-02-02T23:53:43.896Z,98908.34
2023-02-02T23:56:45.469Z,98901.25
2023-02-02T23:59:47.076Z,98910.94
